createdAt,value
2023-02-15T12:46:38.800Z,12.23
2023-02-15T12:47:38.691Z,12.35
2023-02-15T12:48:40.654Z,12.49
2023-02-15T12:49:38.696Z,12.53
2023-02-15T12:50:38.633Z,12.47
2023-02-15T12:51:43.186Z,12.47
2023-02-15T12:52:38.584Z,12.50
2023-02-15T12:53:38.578Z,12.77
2023-02-15T12:54:38.527Z,12.50
2023-02-15T12:55:45.382Z,12.75
2023-02-15T12:56:38.485Z,12.93
2023-02-15T12:57:38.473Z,13.00
2023-02-15T12:58:46.483Z,12.56
2023-02-15T12:59:38.443Z,12.90
2023-02-15T13:00:38.451Z,12.49
2023-02-15T13:01:38.457Z,12.52
2023-02-15T13:02:38.389Z,12.57
2023-02-15T13:03:38.396Z,12.67
2023-02-15T13:04:38.321Z,12.77
2023-02-15T13:05:38.313Z,12.68
2023-02-15T13:06:38.284Z,12.62
2023-02-15T13:07:38.278Z,12.97
2023-02-15T13:08:38.247Z,13.22
2023-02-15T13:09:38.280Z,13.33
2023-02-15T13:10:38.214Z,13.60
2023-02-15T13:11:38.219Z,13.42
2023-02-15T13:12:38.190Z,13.46
2023-02-15T13:13:38.182Z,13.38
2023-02-15T13:14:38.173Z,13.52
2023-02-15T13:15:38.144Z,13.70
2023-02-15T13:16:38.188Z,14.00
2023-02-15T13:17:38.100Z,13.91
2023-02-15T13:18:38.170Z,13.63
2023-02-15T13:19:38.061Z,13.82
2023-02-15T13:20:38.009Z,13.99
2023-02-15T13:21:38.001Z,13.73
2023-02-15T13:22:37.993Z,13.81
2023-02-15T13:23:38.006Z,13.66
2023-02-15T13:24:37.957Z,13.88
2023-02-15T13:25:37.947Z,14.36
2023-02-15T13:26:37.902Z,14.10
2023-02-15T13:27:37.905Z,14.33
2023-02-15T13:28:37.869Z,14.20
2023-02-15T13:29:37.874Z,13.85
2023-02-15T13:30:37.831Z,14.03
2023-02-15T13:31:37.959Z,14.27
2023-02-15T13:32:37.812Z,14.43
2023-02-15T13:33:37.871Z,14.69
2023-02-15T13:34:37.770Z,15.11
2023-02-15T13:35:37.749Z,14.70
2023-02-15T13:36:37.751Z,14.75
2023-02-15T13:37:37.733Z,14.75
2023-02-15T13:38:37.712Z,14.68
2023-02-15T13:39:37.705Z,14.88
2023-02-15T13:40:37.678Z,14.83
2023-02-15T13:41:37.661Z,15.10
2023-02-15T13:42:37.638Z,15.03
2023-02-15T13:43:37.623Z,14.88
2023-02-15T13:44:37.601Z,15.11
2023-02-15T13:45:37.669Z,14.78
2023-02-15T13:46:37.571Z,14.65
2023-02-15T13:47:37.557Z,14.39
2023-02-15T13:48:47.148Z,14.28
2023-02-15T13:49:37.532Z,14.18
2023-02-15T13:50:37.520Z,13.89
2023-02-15T13:51:37.486Z,13.41
2023-02-15T13:52:37.467Z,13.41
2023-02-15T13:53:37.487Z,13.51
2023-02-15T13:54:37.433Z,13.48
2023-02-15T13:55:37.439Z,13.62
2023-02-15T13:56:37.397Z,13.84
2023-02-15T13:57:37.382Z,14.07
2023-02-15T13:58:37.376Z,13.97
2023-02-15T13:59:37.336Z,14.18
2023-02-15T14:00:37.329Z,14.35
2023-02-15T14:01:37.407Z,14.22
2023-02-15T14:02:37.281Z,14.22
2023-02-15T14:03:37.373Z,14.29
2023-02-15T14:04:37.348Z,14.22
2023-02-15T14:05:37.245Z,14.12
2023-02-15T14:06:37.221Z,13.70
2023-02-15T14:07:37.216Z,13.66
2023-02-15T14:08:37.196Z,13.64
2023-02-15T14:09:37.193Z,13.44
2023-02-15T14:10:37.161Z,13.33
2023-02-15T14:11:37.145Z,13.19
2023-02-15T14:12:37.118Z,13.17
2023-02-15T14:13:37.092Z,13.15
2023-02-15T14:14:37.063Z,13.03
2023-02-15T14:15:37.083Z,13.15
2023-02-15T14:16:37.089Z,12.93
2023-02-15T14:17:37.027Z,12.72
2023-02-15T14:18:36.993Z,12.70
2023-02-15T14:19:36.979Z,13.00
2023-02-15T14:20:36.961Z,12.89
2023-02-15T14:21:36.945Z,13.17
2023-02-15T14:22:36.930Z,13.36
2023-02-15T14:23:36.914Z,13.44
2023-02-15T14:24:36.889Z,13.54
2023-02-15T14:25:36.878Z,13.82
2023-02-15T14:26:36.874Z,13.87
2023-02-15T14:27:36.854Z,13.91
2023-02-15T14:28:36.837Z,14.22
2023-02-15T14:29:36.826Z,14.46
2023-02-15T14:30:36.939Z,14.57
2023-02-15T14:31:37.158Z,14.46
2023-02-15T14:32:36.776Z,14.50
2023-02-15T14:33:37.127Z,14.18
2023-02-15T14:34:36.717Z,13.97
2023-02-15T14:35:36.722Z,13.67
